sensor_id;sensor_type;location;lat;lon;timestamp;temperature;humidity
49489;SHT31;35382;51.484;11.476;2022-11-20T00:00:55;-6.79;98.22
49489;SHT31;35382;51.484;11.476;2022-11-20T00:02:36;-6.79;98.43
49489;SHT31;35382;51.484;11.476;2022-11-20T00:04:17;-6.76;98.53
49489;SHT31;35382;51.484;11.476;2022-11-20T00:06:02;-6.76;98.48
49489;SHT31;35382;51.484;11.476;2022-11-20T00:07:44;-6.67;98.37
49489;SHT31;35382;51.484;11.476;2022-11-20T00:09:25;-6.56;98.04
49489;SHT31;35382;51.484;11.476;2022-11-20T00:11:08;-6.53;97.44
49489;SHT31;35382;51.484;11.476;2022-11-20T00:12:50;-6.47;97.39
49489;SHT31;35382;51.484;11.476;2022-11-20T00:14:31;-6.50;96.95
49489;SHT31;35382;51.484;11.476;2022-11-20T00:16:14;-6.63;96.78
49489;SHT31;35382;51.484;11.476;2022-11-20T00:17:55;-6.70;97.29
49489;SHT31;35382;51.484;11.476;2022-11-20T00:19:36;-6.90;97.37
49489;SHT31;35382;51.484;11.476;2022-11-20T00:21:20;-6.87;97.85
49489;SHT31;35382;51.484;11.476;2022-11-20T00:23:01;-6.88;97.94
49489;SHT31;35382;51.484;11.476;2022-11-20T00:24:42;-6.88;97.71
49489;SHT31;35382;51.484;11.476;2022-11-20T00:26:25;-6.95;98.21
49489;SHT31;35382;51.484;11.476;2022-11-20T00:28:07;-6.98;98.34
49489;SHT31;35382;51.484;11.476;2022-11-20T00:29:47;-7.05;98.27
49489;SHT31;35382;51.484;11.476;2022-11-20T00:31:30;-7.07;98.38
49489;SHT31;35382;51.484;11.476;2022-11-20T00:33:11;-7.05;98.51
49489;SHT31;35382;51.484;11.476;2022-11-20T00:34:52;-6.95;98.22
49489;SHT31;35382;51.484;11.476;2022-11-20T00:36:34;-6.84;98.69
49489;SHT31;35382;51.484;11.476;2022-11-20T00:38:14;-6.87;98.45
49489;SHT31;35382;51.484;11.476;2022-11-20T00:39:55;-6.91;98.80
49489;SHT31;35382;51.484;11.476;2022-11-20T00:41:36;-6.91;98.42
49489;SHT31;35382;51.484;11.476;2022-11-20T00:43:17;-6.97;98.31
49489;SHT31;35382;51.484;11.476;2022-11-20T00:44:58;-7.08;98.43
49489;SHT31;35382;51.484;11.476;2022-11-20T00:46:39;-7.09;98.65
49489;SHT31;35382;51.484;11.476;2022-11-20T00:48:20;-7.12;98.67
49489;SHT31;35382;51.484;11.476;2022-11-20T00:50:01;-7.05;98.76
49489;SHT31;35382;51.484;11.476;2022-11-20T00:51:42;-7.01;98.41
49489;SHT31;35382;51.484;11.476;2022-11-20T00:53:24;-7.07;98.18
49489;SHT31;35382;51.484;11.476;2022-11-20T00:55:05;-7.03;98.12
49489;SHT31;35382;51.484;11.476;2022-11-20T00:56:46;-6.98;98.02
49489;SHT31;35382;51.484;11.476;2022-11-20T00:58:33;-7.08;97.85
49489;SHT31;35382;51.484;11.476;2022-11-20T01:00:15;-7.15;97.99
49489;SHT31;35382;51.484;11.476;2022-11-20T01:01:56;-7.18;98.06
49489;SHT31;35382;51.484;11.476;2022-11-20T01:03:39;-7.19;98.24
49489;SHT31;35382;51.484;11.476;2022-11-20T01:05:20;-7.04;98.21
49489;SHT31;35382;51.484;11.476;2022-11-20T01:07:01;-7.11;98.05
49489;SHT31;35382;51.484;11.476;2022-11-20T01:08:43;-7.00;98.30
49489;SHT31;35382;51.484;11.476;2022-11-20T01:10:24;-6.98;98.24
49489;SHT31;35382;51.484;11.476;2022-11-20T01:12:05;-6.95;98.19
49489;SHT31;35382;51.484;11.476;2022-11-20T01:13:49;-7.09;98.68
49489;SHT31;35382;51.484;11.476;2022-11-20T01:15:30;-7.11;98.97
49489;SHT31;35382;51.484;11.476;2022-11-20T01:17:11;-7.15;98.97
49489;SHT31;35382;51.484;11.476;2022-11-20T01:18:53;-7.21;99.17
49489;SHT31;35382;51.484;11.476;2022-11-20T01:20:35;-7.07;98.82
49489;SHT31;35382;51.484;11.476;2022-11-20T01:22:16;-7.07;98.62
49489;SHT31;35382;51.484;11.476;2022-11-20T01:23:59;-7.09;98.58
49489;SHT31;35382;51.484;11.476;2022-11-20T01:25:40;-7.01;98.38
49489;SHT31;35382;51.484;11.476;2022-11-20T01:27:21;-7.07;98.37
49489;SHT31;35382;51.484;11.476;2022-11-20T01:29:03;-7.05;98.30
49489;SHT31;35382;51.484;11.476;2022-11-20T01:30:44;-7.07;98.21
49489;SHT31;35382;51.484;11.476;2022-11-20T01:32:25;-7.05;98.17
49489;SHT31;35382;51.484;11.476;2022-11-20T01:34:09;-7.12;98.09
49489;SHT31;35382;51.484;11.476;2022-11-20T01:35:51;-7.21;98.46
49489;SHT31;35382;51.484;11.476;2022-11-20T01:37:32;-7.22;98.42
49489;SHT31;35382;51.484;11.476;2022-11-20T01:39:17;-7.28;98.41
49489;SHT31;35382;51.484;11.476;2022-11-20T01:40:59;-7.24;98.55
49489;SHT31;35382;51.484;11.476;2022-11-20T01:42:47;-7.27;98.44
49489;SHT31;35382;51.484;11.476;2022-11-20T01:44:57;-7.31;98.41
49489;SHT31;35382;51.484;11.476;2022-11-20T01:46:40;-7.36;98.62
49489;SHT31;35382;51.484;11.476;2022-11-20T01:48:26;-7.49;98.71
49489;SHT31;35382;51.484;11.476;2022-11-20T01:50:14;-7.45;98.93
49489;SHT31;35382;51.484;11.476;2022-11-20T01:52:04;-7.48;98.91
49489;SHT31;35382;51.484;11.476;2022-11-20T01:53:46;-7.43;98.92
49489;SHT31;35382;51.484;11.476;2022-11-20T01:55:36;-7.28;98.73
49489;SHT31;35382;51.484;11.476;2022-11-20T01:57:19;-7.32;98.45
49489;SHT31;35382;51.484;11.476;2022-11-20T01:59:04;-7.27;98.26
49489;SHT31;35382;51.484;11.476;2022-11-20T02:00:46;-7.31;98.28
49489;SHT31;35382;51.484;11.476;2022-11-20T02:02:27;-7.41;98.25
49489;SHT31;35382;51.484;11.476;2022-11-20T02:04:09;-7.36;98.34
49489;SHT31;35382;51.484;11.476;2022-11-20T02:06:12;-7.41;98.38
49489;SHT31;35382;51.484;11.476;2022-11-20T02:07:56;-7.35;98.48
49489;SHT31;35382;51.484;11.476;2022-11-20T02:09:38;-7.38;98.64
49489;SHT31;35382;51.484;11.476;2022-11-20T02:11:19;-7.34;98.74
49489;SHT31;35382;51.484;11.476;2022-11-20T02:13:00;-7.42;99.08
49489;SHT31;35382;51.484;11.476;2022-11-20T02:15:00;-7.56;99.21
49489;SHT31;35382;51.484;11.476;2022-11-20T02:16:45;-7.63;99.37
49489;SHT31;35382;51.484;11.476;2022-11-20T02:18:27;-7.65;99.27
49489;SHT31;35382;51.484;11.476;2022-11-20T02:20:09;-7.60;99.30
49489;SHT31;35382;51.484;11.476;2022-11-20T02:21:56;-7.65;99.10
49489;SHT31;35382;51.484;11.476;2022-11-20T02:23:55;-7.68;99.37
49489;SHT31;35382;51.484;11.476;2022-11-20T02:25:36;-7.75;99.59
49489;SHT31;35382;51.484;11.476;2022-11-20T02:27:18;-7.65;99.40
49489;SHT31;35382;51.484;11.476;2022-11-20T02:29:00;-7.65;99.17
49489;SHT31;35382;51.484;11.476;2022-11-20T02:30:42;-7.56;99.06
49489;SHT31;35382;51.484;11.476;2022-11-20T02:32:26;-7.58;98.88
49489;SHT31;35382;51.484;11.476;2022-11-20T02:34:08;-7.63;99.14
49489;SHT31;35382;51.484;11.476;2022-11-20T02:35:49;-7.66;99.53
49489;SHT31;35382;51.484;11.476;2022-11-20T02:37:32;-7.63;99.62
49489;SHT31;35382;51.484;11.476;2022-11-20T02:39:15;-7.59;99.36
49489;SHT31;35382;51.484;11.476;2022-11-20T02:40:57;-7.63;99.07
49489;SHT31;35382;51.484;11.476;2022-11-20T02:42:38;-7.62;99.06
49489;SHT31;35382;51.484;11.476;2022-11-20T02:44:20;-7.63;99.08
49489;SHT31;35382;51.484;11.476;2022-11-20T02:46:01;-7.62;99.25
49489;SHT31;35382;51.484;11.476;2022-11-20T02:47:42;-7.52;99.27
49489;SHT31;35382;51.484;11.476;2022-11-20T02:49:23;-7.62;99.07
49489;SHT31;35382;51.484;11.476;2022-11-20T02:51:04;-7.66;99.24
49489;SHT31;35382;51.484;11.476;2022-11-20T02:52:45;-7.68;99.16
49489;SHT31;35382;51.484;11.476;2022-11-20T02:54:26;-7.72;99.16
49489;SHT31;35382;51.484;11.476;2022-11-20T02:56:07;-7.81;99.32
49489;SHT31;35382;51.484;11.476;2022-11-20T02:57:48;-7.69;99.27
49489;SHT31;35382;51.484;11.476;2022-11-20T02:59:28;-7.58;98.90
49489;SHT31;35382;51.484;11.476;2022-11-20T03:01:09;-7.66;98.60
49489;SHT31;35382;51.484;11.476;2022-11-20T03:02:50;-7.45;98.34
49489;SHT31;35382;51.484;11.476;2022-11-20T03:04:32;-7.38;98.26
49489;SHT31;35382;51.484;11.476;2022-11-20T03:06:12;-7.43;98.08
49489;SHT31;35382;51.484;11.476;2022-11-20T03:07:54;-7.51;98.23
49489;SHT31;35382;51.484;11.476;2022-11-20T03:09:35;-7.49;98.50
49489;SHT31;35382;51.484;11.476;2022-11-20T03:11:16;-7.62;98.07
49489;SHT31;35382;51.484;11.476;2022-11-20T03:12:57;-7.78;97.79
49489;SHT31;35382;51.484;11.476;2022-11-20T03:14:38;-7.83;98.13
49489;SHT31;35382;51.484;11.476;2022-11-20T03:16:21;-7.71;98.53
49489;SHT31;35382;51.484;11.476;2022-11-20T03:18:03;-7.63;98.43
49489;SHT31;35382;51.484;11.476;2022-11-20T03:19:44;-7.74;98.32
49489;SHT31;35382;51.484;11.476;2022-11-20T03:21:25;-7.75;98.71
49489;SHT31;35382;51.484;11.476;2022-11-20T03:23:06;-7.69;98.56
49489;SHT31;35382;51.484;11.476;2022-11-20T03:24:47;-7.71;98.45
49489;SHT31;35382;51.484;11.476;2022-11-20T03:26:28;-7.53;98.17
49489;SHT31;35382;51.484;11.476;2022-11-20T03:28:09;-7.60;98.14
49489;SHT31;35382;51.484;11.476;2022-11-20T03:29:50;-7.66;98.39
49489;SHT31;35382;51.484;11.476;2022-11-20T03:31:34;-7.71;98.85
49489;SHT31;35382;51.484;11.476;2022-11-20T03:33:15;-7.72;98.88
49489;SHT31;35382;51.484;11.476;2022-11-20T03:34:56;-7.74;98.82
49489;SHT31;35382;51.484;11.476;2022-11-20T03:36:41;-7.76;98.66
49489;SHT31;35382;51.484;11.476;2022-11-20T03:38:22;-7.82;98.57
49489;SHT31;35382;51.484;11.476;2022-11-20T03:40:06;-7.75;98.49
49489;SHT31;35382;51.484;11.476;2022-11-20T03:41:47;-7.75;98.56
49489;SHT31;35382;51.484;11.476;2022-11-20T03:43:28;-7.87;98.73
49489;SHT31;35382;51.484;11.476;2022-11-20T03:45:09;-7.89;98.84
49489;SHT31;35382;51.484;11.476;2022-11-20T03:46:50;-7.87;98.92
49489;SHT31;35382;51.484;11.476;2022-11-20T03:48:31;-7.86;98.91
49489;SHT31;35382;51.484;11.476;2022-11-20T03:50:12;-7.86;98.87
49489;SHT31;35382;51.484;11.476;2022-11-20T03:51:54;-7.89;99.03
49489;SHT31;35382;51.484;11.476;2022-11-20T03:53:35;-7.93;99.13
49489;SHT31;35382;51.484;11.476;2022-11-20T03:55:16;-7.99;99.28
49489;SHT31;35382;51.484;11.476;2022-11-20T03:56:57;-8.00;99.24
49489;SHT31;35382;51.484;11.476;2022-11-20T03:58:39;-8.02;99.22
49489;SHT31;35382;51.484;11.476;2022-11-20T04:00:20;-8.02;99.04
49489;SHT31;35382;51.484;11.476;2022-11-20T04:02:01;-8.10;99.29
49489;SHT31;35382;51.484;11.476;2022-11-20T04:03:43;-7.99;99.64
49489;SHT31;35382;51.484;11.476;2022-11-20T04:05:24;-8.09;99.73
49489;SHT31;35382;51.484;11.476;2022-11-20T04:07:05;-8.07;99.99
49489;SHT31;35382;51.484;11.476;2022-11-20T04:08:46;-8.11;99.99
49489;SHT31;35382;51.484;11.476;2022-11-20T04:10:27;-8.19;99.99
49489;SHT31;35382;51.484;11.476;2022-11-20T04:12:08;-8.16;99.99
49489;SHT31;35382;51.484;11.476;2022-11-20T04:13:55;-8.11;99.99
49489;SHT31;35382;51.484;11.476;2022-11-20T04:15:36;-8.07;99.99
49489;SHT31;35382;51.484;11.476;2022-11-20T04:17:17;-8.03;99.99
49489;SHT31;35382;51.484;11.476;2022-11-20T04:19:00;-7.97;99.99
49489;SHT31;35382;51.484;11.476;2022-11-20T04:20:41;-8.06;99.99
49489;SHT31;35382;51.484;11.476;2022-11-20T04:22:22;-8.05;99.99
49489;SHT31;35382;51.484;11.476;2022-11-20T04:24:03;-8.14;99.99
49489;SHT31;35382;51.484;11.476;2022-11-20T04:25:44;-8.21;99.93
49489;SHT31;35382;51.484;11.476;2022-11-20T04:27:25;-8.21;99.81
49489;SHT31;35382;51.484;11.476;2022-11-20T04:29:09;-8.11;99.69
49489;SHT31;35382;51.484;11.476;2022-11-20T04:30:51;-8.21;99.44
49489;SHT31;35382;51.484;11.476;2022-11-20T04:32:31;-8.29;99.56
49489;SHT31;35382;51.484;11.476;2022-11-20T04:34:12;-8.26;99.84
49489;SHT31;35382;51.484;11.476;2022-11-20T04:35:53;-8.37;99.99
49489;SHT31;35382;51.484;11.476;2022-11-20T04:37:34;-8.34;99.99
49489;SHT31;35382;51.484;11.476;2022-11-20T04:39:15;-8.26;99.89
49489;SHT31;35382;51.484;11.476;2022-11-20T04:41:02;-8.27;99.90
49489;SHT31;35382;51.484;11.476;2022-11-20T04:42:43;-8.21;99.83
49489;SHT31;35382;51.484;11.476;2022-11-20T04:44:24;-8.27;99.74
49489;SHT31;35382;51.484;11.476;2022-11-20T04:46:05;-8.14;99.65
49489;SHT31;35382;51.484;11.476;2022-11-20T04:47:46;-8.03;99.70
49489;SHT31;35382;51.484;11.476;2022-11-20T04:49:27;-8.10;99.58
49489;SHT31;35382;51.484;11.476;2022-11-20T04:51:07;-8.09;99.35
49489;SHT31;35382;51.484;11.476;2022-11-20T04:52:48;-8.06;99.29
49489;SHT31;35382;51.484;11.476;2022-11-20T04:54:29;-8.20;99.48
49489;SHT31;35382;51.484;11.476;2022-11-20T04:56:12;-8.13;99.50
49489;SHT31;35382;51.484;11.476;2022-11-20T04:57:53;-7.99;99.22
49489;SHT31;35382;51.484;11.476;2022-11-20T04:59:34;-7.95;98.96
49489;SHT31;35382;51.484;11.476;2022-11-20T05:01:20;-7.97;98.82
49489;SHT31;35382;51.484;11.476;2022-11-20T05:03:01;-8.16;98.91
49489;SHT31;35382;51.484;11.476;2022-11-20T05:04:42;-8.29;99.00
49489;SHT31;35382;51.484;11.476;2022-11-20T05:06:23;-8.33;99.20
49489;SHT31;35382;51.484;11.476;2022-11-20T05:08:04;-8.33;99.38
49489;SHT31;35382;51.484;11.476;2022-11-20T05:09:45;-8.37;99.31
49489;SHT31;35382;51.484;11.476;2022-11-20T05:11:26;-8.29;99.36
49489;SHT31;35382;51.484;11.476;2022-11-20T05:13:09;-8.37;99.40
49489;SHT31;35382;51.484;11.476;2022-11-20T05:14:50;-8.34;99.61
49489;SHT31;35382;51.484;11.476;2022-11-20T05:16:34;-8.33;99.81
49489;SHT31;35382;51.484;11.476;2022-11-20T05:18:15;-8.36;99.99
49489;SHT31;35382;51.484;11.476;2022-11-20T05:19:56;-8.23;99.87
49489;SHT31;35382;51.484;11.476;2022-11-20T05:21:37;-8.24;99.69
49489;SHT31;35382;51.484;11.476;2022-11-20T05:23:18;-8.24;99.69
49489;SHT31;35382;51.484;11.476;2022-11-20T05:24:59;-8.24;99.95
49489;SHT31;35382;51.484;11.476;2022-11-20T05:26:40;-8.26;99.94
49489;SHT31;35382;51.484;11.476;2022-11-20T05:28:21;-8.23;99.85
49489;SHT31;35382;51.484;11.476;2022-11-20T05:30:06;-8.23;99.62
49489;SHT31;35382;51.484;11.476;2022-11-20T05:31:47;-8.16;99.32
49489;SHT31;35382;51.484;11.476;2022-11-20T05:33:28;-8.26;99.68
49489;SHT31;35382;51.484;11.476;2022-11-20T05:35:09;-8.23;99.69
49489;SHT31;35382;51.484;11.476;2022-11-20T05:36:50;-8.20;99.70
49489;SHT31;35382;51.484;11.476;2022-11-20T05:38:31;-8.09;99.74
49489;SHT31;35382;51.484;11.476;2022-11-20T05:40:12;-8.05;99.61
49489;SHT31;35382;51.484;11.476;2022-11-20T05:41:53;-8.07;99.47
49489;SHT31;35382;51.484;11.476;2022-11-20T05:43:53;-8.19;99.40
49489;SHT31;35382;51.484;11.476;2022-11-20T05:45:34;-8.26;99.52
49489;SHT31;35382;51.484;11.476;2022-11-20T05:47:15;-8.33;99.47
49489;SHT31;35382;51.484;11.476;2022-11-20T05:48:56;-8.20;99.47
49489;SHT31;35382;51.484;11.476;2022-11-20T05:50:38;-8.40;99.25
49489;SHT31;35382;51.484;11.476;2022-11-20T05:52:19;-8.36;99.45
49489;SHT31;35382;51.484;11.476;2022-11-20T05:54:00;-8.38;99.41
49489;SHT31;35382;51.484;11.476;2022-11-20T05:55:41;-8.41;99.34
49489;SHT31;35382;51.484;11.476;2022-11-20T05:57:22;-8.34;99.47
49489;SHT31;35382;51.484;11.476;2022-11-20T05:59:03;-8.33;99.59
49489;SHT31;35382;51.484;11.476;2022-11-20T06:00:44;-8.30;99.24
49489;SHT31;35382;51.484;11.476;2022-11-20T06:02:25;-8.26;99.15
49489;SHT31;35382;51.484;11.476;2022-11-20T06:04:06;-8.29;98.92
49489;SHT31;35382;51.484;11.476;2022-11-20T06:05:46;-8.23;98.56
49489;SHT31;35382;51.484;11.476;2022-11-20T06:07:27;-8.30;98.55
49489;SHT31;35382;51.484;11.476;2022-11-20T06:09:08;-8.24;98.51
49489;SHT31;35382;51.484;11.476;2022-11-20T06:10:49;-8.24;98.41
49489;SHT31;35382;51.484;11.476;2022-11-20T06:12:31;-7.89;98.32
49489;SHT31;35382;51.484;11.476;2022-11-20T06:14:13;-7.85;97.77
49489;SHT31;35382;51.484;11.476;2022-11-20T06:15:54;-7.93;98.09
49489;SHT31;35382;51.484;11.476;2022-11-20T06:17:35;-7.96;98.69
49489;SHT31;35382;51.484;11.476;2022-11-20T06:19:16;-7.93;98.45
49489;SHT31;35382;51.484;11.476;2022-11-20T06:22:41;-8.17;98.47
49489;SHT31;35382;51.484;11.476;2022-11-20T06:24:22;-8.26;98.55
49489;SHT31;35382;51.484;11.476;2022-11-20T06:26:08;-8.27;98.77
49489;SHT31;35382;51.484;11.476;2022-11-20T06:27:50;-8.20;98.69
49489;SHT31;35382;51.484;11.476;2022-11-20T06:29:31;-8.20;98.52
49489;SHT31;35382;51.484;11.476;2022-11-20T06:31:14;-8.19;98.42
49489;SHT31;35382;51.484;11.476;2022-11-20T06:32:55;-7.79;98.59
49489;SHT31;35382;51.484;11.476;2022-11-20T06:34:36;-7.48;97.99
49489;SHT31;35382;51.484;11.476;2022-11-20T06:36:19;-7.36;97.17
49489;SHT31;35382;51.484;11.476;2022-11-20T06:38:00;-7.41;97.42
49489;SHT31;35382;51.484;11.476;2022-11-20T06:39:41;-7.52;97.61
49489;SHT31;35382;51.484;11.476;2022-11-20T06:41:22;-7.46;97.89
49489;SHT31;35382;51.484;11.476;2022-11-20T06:43:03;-7.38;97.92
49489;SHT31;35382;51.484;11.476;2022-11-20T06:44:44;-7.32;97.93
49489;SHT31;35382;51.484;11.476;2022-11-20T06:46:25;-7.32;97.83
49489;SHT31;35382;51.484;11.476;2022-11-20T06:48:06;-7.45;97.97
49489;SHT31;35382;51.484;11.476;2022-11-20T06:49:47;-7.53;97.97
49489;SHT31;35382;51.484;11.476;2022-11-20T06:51:28;-7.60;98.18
49489;SHT31;35382;51.484;11.476;2022-11-20T06:53:09;-7.55;98.35
49489;SHT31;35382;51.484;11.476;2022-11-20T06:54:50;-7.59;98.25
49489;SHT31;35382;51.484;11.476;2022-11-20T06:56:31;-7.48;99.18
49489;SHT31;35382;51.484;11.476;2022-11-20T06:58:13;-7.39;99.29
49489;SHT31;35382;51.484;11.476;2022-11-20T06:59:54;-7.25;99.08
49489;SHT31;35382;51.484;11.476;2022-11-20T07:01:35;-7.27;99.18
49489;SHT31;35382;51.484;11.476;2022-11-20T07:03:16;-7.22;99.21
49489;SHT31;35382;51.484;11.476;2022-11-20T07:04:57;-7.12;99.06
49489;SHT31;35382;51.484;11.476;2022-11-20T07:06:38;-7.14;99.19
49489;SHT31;35382;51.484;11.476;2022-11-20T07:08:19;-7.09;99.41
49489;SHT31;35382;51.484;11.476;2022-11-20T07:10:00;-7.04;99.32
49489;SHT31;35382;51.484;11.476;2022-11-20T07:11:41;-6.91;99.50
49489;SHT31;35382;51.484;11.476;2022-11-20T07:13:22;-6.90;99.43
49489;SHT31;35382;51.484;11.476;2022-11-20T07:15:03;-6.88;99.44
49489;SHT31;35382;51.484;11.476;2022-11-20T07:16:44;-6.73;99.36
49489;SHT31;35382;51.484;11.476;2022-11-20T07:18:25;-6.73;99.58
49489;SHT31;35382;51.484;11.476;2022-11-20T07:20:06;-6.66;99.67
49489;SHT31;35382;51.484;11.476;2022-11-20T07:21:47;-6.50;99.82
49489;SHT31;35382;51.484;11.476;2022-11-20T07:23:28;-6.44;99.99
49489;SHT31;35382;51.484;11.476;2022-11-20T07:25:11;-6.43;99.99
49489;SHT31;35382;51.484;11.476;2022-11-20T07:26:51;-6.44;99.99
49489;SHT31;35382;51.484;11.476;2022-11-20T07:28:33;-6.41;99.99
49489;SHT31;35382;51.484;11.476;2022-11-20T07:30:15;-6.51;99.99
49489;SHT31;35382;51.484;11.476;2022-11-20T07:31:56;-6.59;99.99
49489;SHT31;35382;51.484;11.476;2022-11-20T07:33:37;-6.59;99.99
49489;SHT31;35382;51.484;11.476;2022-11-20T07:35:18;-6.61;99.99
49489;SHT31;35382;51.484;11.476;2022-11-20T07:36:59;-6.70;99.99
49489;SHT31;35382;51.484;11.476;2022-11-20T07:38:40;-6.64;99.99
49489;SHT31;35382;51.484;11.476;2022-11-20T07:40:21;-6.66;99.99
49489;SHT31;35382;51.484;11.476;2022-11-20T07:42:02;-6.60;99.99
49489;SHT31;35382;51.484;11.476;2022-11-20T07:43:43;-6.59;99.99
49489;SHT31;35382;51.484;11.476;2022-11-20T07:45:24;-6.50;99.99
49489;SHT31;35382;51.484;11.476;2022-11-20T07:47:05;-6.40;99.99
49489;SHT31;35382;51.484;11.476;2022-11-20T07:48:46;-6.47;99.99
49489;SHT31;35382;51.484;11.476;2022-11-20T07:50:27;-6.46;99.99
49489;SHT31;35382;51.484;11.476;2022-11-20T07:52:08;-6.41;99.99
49489;SHT31;35382;51.484;11.476;2022-11-20T07:53:52;-6.41;99.99
49489;SHT31;35382;51.484;11.476;2022-11-20T07:55:33;-6.41;99.99
49489;SHT31;35382;51.484;11.476;2022-11-20T07:57:14;-6.41;99.99
49489;SHT31;35382;51.484;11.476;2022-11-20T07:58:55;-6.30;99.99
49489;SHT31;35382;51.484;11.476;2022-11-20T08:00:36;-6.32;99.99
49489;SHT31;35382;51.484;11.476;2022-11-20T08:02:17;-6.25;99.99
49489;SHT31;35382;51.484;11.476;2022-11-20T08:03:58;-6.20;99.99
49489;SHT31;35382;51.484;11.476;2022-11-20T08:05:39;-6.20;99.99
49489;SHT31;35382;51.484;11.476;2022-11-20T08:07:20;-6.20;99.99
49489;SHT31;35382;51.484;11.476;2022-11-20T08:09:01;-6.19;99.99
49489;SHT31;35382;51.484;11.476;2022-11-20T08:10:42;-6.10;99.99
49489;SHT31;35382;51.484;11.476;2022-11-20T08:12:23;-6.17;99.99
49489;SHT31;35382;51.484;11.476;2022-11-20T08:14:22;-6.15;99.99
49489;SHT31;35382;51.484;11.476;2022-11-20T08:16:03;-6.17;99.99
49489;SHT31;35382;51.484;11.476;2022-11-20T08:17:44;-6.19;99.99
49489;SHT31;35382;51.484;11.476;2022-11-20T08:19:25;-6.19;99.99
49489;SHT31;35382;51.484;11.476;2022-11-20T08:21:06;-6.17;99.99
49489;SHT31;35382;51.484;11.476;2022-11-20T08:22:47;-6.12;99.99
49489;SHT31;35382;51.484;11.476;2022-11-20T08:24:28;-6.15;99.99
49489;SHT31;35382;51.484;11.476;2022-11-20T08:26:09;-6.09;99.99
49489;SHT31;35382;51.484;11.476;2022-11-20T08:27:50;-6.02;99.99
49489;SHT31;35382;51.484;11.476;2022-11-20T08:29:31;-6.03;99.99
49489;SHT31;35382;51.484;11.476;2022-11-20T08:31:12;-6.01;99.99
49489;SHT31;35382;51.484;11.476;2022-11-20T08:32:54;-5.85;99.99
49489;SHT31;35382;51.484;11.476;2022-11-20T08:34:34;-5.77;99.99
49489;SHT31;35382;51.484;11.476;2022-11-20T08:36:16;-5.75;99.99
49489;SHT31;35382;51.484;11.476;2022-11-20T08:37:57;-5.89;99.99
49489;SHT31;35382;51.484;11.476;2022-11-20T08:39:38;-5.99;99.99
49489;SHT31;35382;51.484;11.476;2022-11-20T08:41:19;-5.85;99.99
49489;SHT31;35382;51.484;11.476;2022-11-20T08:43:09;-5.65;99.99
49489;SHT31;35382;51.484;11.476;2022-11-20T08:44:50;-5.58;99.99
49489;SHT31;35382;51.484;11.476;2022-11-20T08:46:33;-5.68;99.99
49489;SHT31;35382;51.484;11.476;2022-11-20T08:48:16;-5.61;99.99
49489;SHT31;35382;51.484;11.476;2022-11-20T08:49:57;-5.58;99.99
49489;SHT31;35382;51.484;11.476;2022-11-20T08:51:37;-5.52;99.74
49489;SHT31;35382;51.484;11.476;2022-11-20T08:53:18;-5.57;99.65
49489;SHT31;35382;51.484;11.476;2022-11-20T08:54:59;-5.32;99.47
49489;SHT31;35382;51.484;11.476;2022-11-20T08:56:40;-5.32;99.27
49489;SHT31;35382;51.484;11.476;2022-11-20T08:58:21;-5.37;99.37
49489;SHT31;35382;51.484;11.476;2022-11-20T09:00:06;-5.41;99.45
49489;SHT31;35382;51.484;11.476;2022-11-20T09:01:48;-5.32;99.39
49489;SHT31;35382;51.484;11.476;2022-11-20T09:03:29;-5.34;99.42
49489;SHT31;35382;51.484;11.476;2022-11-20T09:05:10;-5.24;99.64
49489;SHT31;35382;51.484;11.476;2022-11-20T09:06:50;-5.18;99.84
49489;SHT31;35382;51.484;11.476;2022-11-20T09:08:32;-5.21;99.45
49489;SHT31;35382;51.484;11.476;2022-11-20T09:10:14;-5.41;99.77
49489;SHT31;35382;51.484;11.476;2022-11-20T09:11:55;-5.35;99.25
49489;SHT31;35382;51.484;11.476;2022-11-20T09:13:36;-5.32;99.22
49489;SHT31;35382;51.484;11.476;2022-11-20T09:15:17;-5.14;99.32
49489;SHT31;35382;51.484;11.476;2022-11-20T09:16:58;-5.15;99.45
49489;SHT31;35382;51.484;11.476;2022-11-20T09:18:39;-5.11;99.38
49489;SHT31;35382;51.484;11.476;2022-11-20T09:20:20;-5.18;98.93
49489;SHT31;35382;51.484;11.476;2022-11-20T09:22:02;-5.03;98.81
49489;SHT31;35382;51.484;11.476;2022-11-20T09:23:43;-4.69;97.84
49489;SHT31;35382;51.484;11.476;2022-11-20T09:25:24;-4.65;97.59
49489;SHT31;35382;51.484;11.476;2022-11-20T09:27:05;-4.59;97.47
49489;SHT31;35382;51.484;11.476;2022-11-20T09:28:46;-4.63;97.22
49489;SHT31;35382;51.484;11.476;2022-11-20T09:30:27;-4.41;97.38
49489;SHT31;35382;51.484;11.476;2022-11-20T09:32:08;-4.33;96.18
49489;SHT31;35382;51.484;11.476;2022-11-20T09:33:49;-4.29;95.59
49489;SHT31;35382;51.484;11.476;2022-11-20T09:35:30;-4.06;95.66
49489;SHT31;35382;51.484;11.476;2022-11-20T09:37:11;-3.88;95.12
49489;SHT31;35382;51.484;11.476;2022-11-20T09:38:52;-3.75;94.82
49489;SHT31;35382;51.484;11.476;2022-11-20T09:40:35;-3.70;94.62
49489;SHT31;35382;51.484;11.476;2022-11-20T09:46:40;-3.31;93.97
49489;SHT31;35382;51.484;11.476;2022-11-20T09:48:39;-3.40;92.99
49489;SHT31;35382;51.484;11.476;2022-11-20T09:54:13;-3.31;93.78
49489;SHT31;35382;51.484;11.476;2022-11-20T09:55:55;-3.33;94.97
49489;SHT31;35382;51.484;11.476;2022-11-20T09:57:40;-3.34;94.21
49489;SHT31;35382;51.484;11.476;2022-11-20T10:01:17;-3.10;93.58
49489;SHT31;35382;51.484;11.476;2022-11-20T10:03:16;-3.27;94.48
49489;SHT31;35382;51.484;11.476;2022-11-20T10:07:24;-3.24;95.05
49489;SHT31;35382;51.484;11.476;2022-11-20T10:15:29;-3.07;94.86
49489;SHT31;35382;51.484;11.476;2022-11-20T10:25:00;-2.87;94.45
49489;SHT31;35382;51.484;11.476;2022-11-20T10:27:09;-2.83;94.94
49489;SHT31;35382;51.484;11.476;2022-11-20T10:29:16;-2.97;94.62
49489;SHT31;35382;51.484;11.476;2022-11-20T10:31:08;-2.99;94.49
49489;SHT31;35382;51.484;11.476;2022-11-20T10:32:58;-2.82;94.65
49489;SHT31;35382;51.484;11.476;2022-11-20T10:34:57;-2.77;93.89
49489;SHT31;35382;51.484;11.476;2022-11-20T10:36:52;-2.85;94.02
49489;SHT31;35382;51.484;11.476;2022-11-20T10:38:43;-2.63;95.05
49489;SHT31;35382;51.484;11.476;2022-11-20T10:40:34;-2.66;93.34
49489;SHT31;35382;51.484;11.476;2022-11-20T10:42:22;-2.73;93.92
49489;SHT31;35382;51.484;11.476;2022-11-20T10:44:16;-2.59;95.03
49489;SHT31;35382;51.484;11.476;2022-11-20T10:46:19;-2.44;93.97
49489;SHT31;35382;51.484;11.476;2022-11-20T10:48:20;-2.58;92.71
49489;SHT31;35382;51.484;11.476;2022-11-20T10:50:04;-2.56;93.07
49489;SHT31;35382;51.484;11.476;2022-11-20T10:52:04;-2.55;93.81
49489;SHT31;35382;51.484;11.476;2022-11-20T10:53:58;-2.38;93.62
49489;SHT31;35382;51.484;11.476;2022-11-20T10:55:48;-2.21;94.35
49489;SHT31;35382;51.484;11.476;2022-11-20T11:01:20;-1.97;93.55
49489;SHT31;35382;51.484;11.476;2022-11-20T11:03:34;-1.94;93.28
49489;SHT31;35382;51.484;11.476;2022-11-20T11:07:20;-2.14;92.88
49489;SHT31;35382;51.484;11.476;2022-11-20T11:09:10;-1.99;93.57
49489;SHT31;35382;51.484;11.476;2022-11-20T11:10:57;-1.93;92.87
49489;SHT31;35382;51.484;11.476;2022-11-20T11:12:46;-1.80;92.56